createdAt,value
2023-11-18T00:05:09.490Z,30.40
2023-11-18T00:15:15.011Z,27.87
2023-11-18T00:25:19.509Z,27.30
2023-11-18T00:35:22.419Z,22.30
2023-11-18T00:45:30.096Z,22.77
2023-11-18T00:55:35.441Z,25.37
2023-11-18T01:05:48.326Z,23.53
2023-11-18T01:15:51.955Z,23.63
2023-11-18T01:25:57.168Z,23.97
2023-11-18T01:36:00.078Z,22.20
2023-11-18T01:46:08.446Z,22.63
2023-11-18T01:56:12.423Z,22.97
2023-11-18T02:06:18.279Z,23.40
2023-11-18T02:16:22.271Z,24.60
2023-11-18T02:26:26.933Z,25.23
2023-11-18T02:36:37.479Z,24.43
2023-11-18T02:46:44.845Z,23.73
2023-11-18T02:56:48.000Z,26.13
2023-11-18T03:06:52.684Z,22.73
2023-11-18T03:16:56.876Z,24.40
2023-11-18T03:27:01.704Z,21.47
2023-11-18T03:37:04.667Z,21.23
2023-11-18T03:47:09.370Z,22.47
2023-11-18T03:57:12.668Z,23.73
2023-11-18T04:07:17.128Z,23.43
2023-11-18T04:17:20.404Z,21.07
2023-11-18T04:27:24.997Z,22.23
2023-11-18T04:37:28.406Z,20.50
2023-11-18T04:47:32.833Z,20.10
2023-11-18T04:57:35.958Z,20.73
2023-11-18T05:07:42.349Z,19.13
2023-11-18T05:17:45.442Z,22.33
2023-11-18T05:27:49.884Z,22.50
2023-11-18T05:37:52.796Z,20.07
2023-11-18T05:47:58.775Z,23.37
2023-11-18T05:58:01.861Z,20.67
2023-11-18T06:08:06.390Z,22.53
2023-11-18T06:18:10.023Z,19.63
2023-11-18T06:28:16.592Z,19.37
2023-11-18T06:38:20.213Z,18.50
2023-11-18T06:48:25.161Z,17.60
2023-11-18T06:58:28.924Z,18.40
2023-11-18T07:08:33.783Z,18.43
2023-11-18T07:18:36.820Z,17.60
2023-11-18T07:28:41.697Z,18.40
2023-11-18T07:38:45.569Z,16.67
2023-11-18T07:48:53.077Z,17.00
2023-11-18T07:58:56.268Z,16.40
2023-11-18T08:09:00.750Z,15.83
2023-11-18T08:19:04.072Z,14.60
2023-11-18T08:29:09.310Z,12.53
2023-11-18T08:39:12.630Z,12.90
2023-11-18T08:49:22.352Z,12.20
2023-11-18T08:59:26.986Z,11.40
2023-11-18T09:09:33.503Z,11.33
2023-11-18T09:19:36.383Z,10.20
2023-11-18T09:29:42.350Z,8.67
2023-11-18T09:40:00.423Z,7.13
2023-11-18T09:50:12.601Z,7.67
2023-11-18T10:00:23.493Z,7.63
2023-11-18T10:10:37.089Z,6.30
2023-11-18T10:20:50.773Z,7.10
2023-11-18T10:30:58.851Z,5.90
2023-11-18T10:41:03.151Z,6.57
2023-11-18T10:51:08.269Z,6.27
2023-11-18T11:01:12.812Z,6.33
2023-11-18T11:11:23.046Z,5.80
2023-11-18T11:21:30.949Z,5.57
2023-11-18T11:31:41.411Z,6.40
2023-11-18T11:41:47.482Z,7.47
2023-11-18T11:52:00.153Z,6.33
2023-11-18T12:02:08.664Z,7.07
2023-11-18T12:12:21.609Z,7.23
2023-11-18T12:22:31.545Z,6.43
2023-11-18T12:33:12.402Z,6.57
2023-11-18T12:43:19.027Z,6.07
2023-11-18T12:53:25.368Z,7.30
2023-11-18T13:03:30.399Z,6.43
2023-11-18T13:13:42.880Z,5.17
2023-11-18T13:23:53.669Z,6.40
2023-11-18T13:33:56.747Z,5.77
2023-11-18T13:44:01.758Z,5.43
2023-11-18T13:54:08.040Z,6.00
2023-11-18T14:04:12.562Z,5.60
2023-11-18T14:14:19.203Z,5.10
2023-11-18T14:24:32.965Z,4.77
2023-11-18T14:34:39.391Z,4.50
2023-11-18T14:44:43.635Z,3.87
2023-11-18T14:54:47.521Z,4.50
2023-11-18T15:04:59.623Z,4.73
2023-11-18T15:15:03.978Z,4.10
2023-11-18T15:25:11.768Z,3.87
2023-11-18T15:35:19.235Z,3.57
2023-11-18T15:45:27.165Z,2.40
2023-11-18T15:55:33.339Z,2.87
2023-11-18T16:05:41.176Z,2.43
2023-11-18T16:15:44.189Z,2.47
2023-11-18T16:25:48.444Z,3.57
2023-11-18T16:35:53.947Z,3.00
2023-11-18T16:45:59.351Z,3.43
2023-11-18T16:56:05.449Z,2.60
2023-11-18T17:06:11.278Z,2.30
2023-11-18T17:16:17.367Z,2.00
2023-11-18T17:26:22.100Z,2.13
2023-11-18T17:36:26.476Z,2.20
2023-11-18T17:46:35.394Z,2.20
2023-11-18T17:56:38.274Z,2.93
2023-11-18T18:06:45.379Z,2.83
2023-11-18T18:16:48.264Z,2.83
2023-11-18T18:26:58.809Z,2.70
2023-11-18T18:37:02.041Z,2.57
2023-11-18T18:47:08.320Z,2.33
2023-11-18T18:57:15.095Z,2.70
2023-11-18T19:07:22.326Z,2.50
2023-11-18T19:17:30.356Z,2.50
2023-11-18T19:27:44.520Z,2.00
2023-11-18T19:37:49.721Z,2.67
2023-11-18T19:47:54.405Z,1.90
2023-11-18T19:58:04.383Z,3.20
2023-11-18T20:08:09.087Z,2.70
2023-11-18T20:18:12.777Z,3.03
2023-11-18T20:28:21.720Z,3.83
2023-11-18T20:38:25.073Z,2.50
2023-11-18T20:48:29.757Z,3.53
2023-11-18T20:58:32.897Z,2.50
2023-11-18T21:08:37.809Z,2.60
2023-11-18T21:18:41.328Z,2.37
2023-11-18T21:28:49.156Z,2.87
2023-11-18T21:38:54.575Z,3.03
2023-11-18T21:48:59.602Z,2.30
2023-11-18T21:59:04.732Z,2.20
2023-11-18T22:09:10.254Z,4.13
2023-11-18T22:19:16.559Z,14.67
2023-11-18T22:29:22.056Z,5.00
2023-11-18T22:39:25.400Z,2.30
2023-11-18T22:49:30.000Z,2.80
2023-11-18T22:59:34.164Z,3.90
2023-11-18T23:09:38.725Z,3.90
2023-11-18T23:19:49.709Z,2.30
2023-11-18T23:29:54.949Z,2.07
2023-11-18T23:39:58.308Z,1.83
2023-11-18T23:50:04.526Z,1.73
